Time,TemperatureF,DewpointF,PressureIn,WindDirection,WindDirectionDegrees,WindSpeedMPH,WindSpeedGustMPH,Humidity,HourlyPrecipIn,Conditions,Clouds,dailyrainin,SoftwareType,DateUTC
2013-02-20 00:02:00,-999.0,-99.9,29.94,WNW,293,9.0,17.0,-999,-99.99,,,-99.99,,2013-02-20 05:02:00,
2013-02-20 00:12:00,52.0,-99.9,29.95,North,-999,-999.0,-999.0,-999,-99.99,,,-99.99,,2013-02-20 05:12:00,
2013-02-20 00:22:00,-999.0,-99.9,29.95,WNW,287,10.0,19.0,-999,-99.99,,,-99.99,,2013-02-20 05:22:00,
2013-02-20 00:32:00,52.0,-99.9,29.95,North,-999,-999.0,-999.0,-999,-99.99,,,-99.99,,2013-02-20 05:32:00,
2013-02-20 00:52:00,51.0,-99.9,29.95,North,-999,-999.0,-999.0,-999,-99.99,,,-99.99,,2013-02-20 05:52:00,
2013-02-20 01:02:00,50.0,-99.9,29.95,North,-999,-999.0,-999.0,-999,-99.99,,,-99.99,,2013-02-20 06:02:00,
2013-02-20 01:22:00,50.0,-99.9,29.95,North,-999,-999.0,-999.0,-999,-99.99,,,-99.99,,2013-02-20 06:22:00,
2013-02-20 01:32:00,-999.0,-99.9,29.95,WNW,291,7.0,12.0,-999,-99.99,,,-99.99,,2013-02-20 06:32:00,
2013-02-20 01:42:00,-999.0,-99.9,29.96,WNW,291,6.0,11.0,-999,-99.99,,,-99.99,,2013-02-20 06:42:00,
2013-02-20 01:52:00,-999.0,-99.9,29.96,WNW,292,5.0,9.0,-999,-99.99,,,-99.99,,2013-02-20 06:52:00,
2013-02-20 02:02:00,-999.0,-99.9,29.96,WNW,290,7.0,10.0,-999,-99.99,,,-99.99,,2013-02-20 07:02:00,
2013-02-20 02:11:00,49.0,-99.9,29.96,North,-999,-999.0,-999.0,-999,-99.99,,,-99.99,,2013-02-20 07:11:00,
2013-02-20 02:21:00,49.0,-99.9,29.96,North,-999,-999.0,-999.0,-999,-99.99,,,-99.99,,2013-02-20 07:21:00,
2013-02-20 02:32:00,-999.0,-99.9,29.96,WNW,288,5.0,11.0,-999,-99.99,,,-99.99,,2013-02-20 07:32:00,
2013-02-20 02:52:00,-999.0,-99.9,29.96,WNW,292,5.0,8.0,-999,-99.99,,,-99.99,,2013-02-20 07:52:00,
2013-02-20 03:05:00,-999.0,-99.9,29.97,WNW,289,6.0,10.0,-999,-99.99,,,-99.99,,2013-02-20 08:05:00,
2013-02-20 03:11:00,-999.0,-99.9,29.97,WNW,289,7.0,11.0,-999,-99.99,,,-99.99,,2013-02-20 08:11:00,
2013-02-20 03:22:00,-999.0,-99.9,29.97,WNW,289,7.0,11.0,-999,-99.99,,,-99.99,,2013-02-20 08:22:00,
2013-02-20 03:32:00,-999.0,-99.9,29.97,WNW,289,8.0,12.0,-999,-99.99,,,-99.99,,2013-02-20 08:32:00,
2013-02-20 03:42:00,47.0,-99.9,29.97,North,-999,-999.0,-999.0,-999,-99.99,,,-99.99,,2013-02-20 08:42:00,
2013-02-20 03:52:00,-999.0,-99.9,29.97,WNW,295,9.0,11.0,-999,-99.99,,,-99.99,,2013-02-20 08:52:00,
2013-02-20 04:02:00,47.0,-99.9,29.97,North,-999,-999.0,-999.0,-999,-99.99,,,-99.99,,2013-02-20 09:02:00,
2013-02-20 04:22:00,-999.0,-99.9,29.97,WNW,300,9.0,13.0,-999,-99.99,,,-99.99,,2013-02-20 09:22:00,
2013-02-20 04:32:00,-999.0,-99.9,29.98,NW,307,5.0,10.0,-999,-99.99,,,-99.99,,2013-02-20 09:32:00,
2013-02-20 04:42:00,-999.0,-99.9,29.98,NW,307,6.0,10.0,-999,-99.99,,,-99.99,,2013-02-20 09:42:00,
2013-02-20 04:52:00,46.0,-99.9,29.99,North,-999,-999.0,-999.0,-999,-99.99,,,-99.99,,2013-02-20 09:52:00,
2013-02-20 05:01:00,45.0,-99.9,30.00,North,-999,-999.0,-999.0,-999,-99.99,,,-99.99,,2013-02-20 10:01:00,
2013-02-20 05:12:00,-999.0,-99.9,30.00,NW,310,7.0,12.0,-999,-99.99,,,-99.99,,2013-02-20 10:12:00,
2013-02-20 05:22:00,-999.0,-99.9,30.00,NW,318,6.0,9.0,-999,-99.99,,,-99.99,,2013-02-20 10:22:00,
2013-02-20 05:32:00,44.0,-99.9,30.01,North,-999,-999.0,-999.0,-999,-99.99,,,-99.99,,2013-02-20 10:32:00,
2013-02-20 05:42:00,44.0,-99.9,30.02,NW,321,5.0,9.0,-999,-99.99,,,-99.99,,2013-02-20 10:42:00,
2013-02-20 05:52:00,44.0,-99.9,30.02,North,-999,-999.0,-999.0,-999,-99.99,,,-99.99,,2013-02-20 10:52:00,
2013-02-20 06:02:00,-999.0,-99.9,30.02,NW,324,6.0,10.0,-999,-99.99,,,-99.99,,2013-02-20 11:02:00,
2013-02-20 06:22:00,-999.0,-99.9,30.03,NW,326,5.0,7.0,-999,-99.99,,,-99.99,,2013-02-20 11:22:00,
2013-02-20 06:32:00,-999.0,-99.9,30.03,NW,323,6.0,8.0,-999,-99.99,,,-99.99,,2013-02-20 11:32:00,
2013-02-20 06:42:00,-999.0,-99.9,30.04,NW,326,6.0,9.0,-999,-99.99,,,-99.99,,2013-02-20 11:42:00,
2013-02-20 06:52:00,-999.0,-99.9,30.04,NW,325,6.0,11.0,-999,-99.99,,,-99.99,,2013-02-20 11:52:00,
2013-02-20 07:02:00,42.0,-99.9,30.05,North,-999,-999.0,-999.0,-999,-99.99,,,-99.99,,2013-02-20 12:02:00,
2013-02-20 07:12:00,42.0,-99.9,30.06,NW,324,6.0,11.0,-999,-99.99,,,-99.99,,2013-02-20 12:12:00,
2013-02-20 07:22:00,-999.0,-99.9,30.06,NW,321,5.0,10.0,-999,-99.99,,,-99.99,,2013-02-20 12:22:00,
2013-02-20 07:32:00,-999.0,-99.9,30.06,NW,318,4.0,9.0,-999,-99.99,,,-99.99,,2013-02-20 12:32:00,
2013-02-20 07:42:00,-999.0,-99.9,30.07,NW,314,6.0,8.0,-999,-99.99,,,-99.99,,2013-02-20 12:42:00,
2013-02-20 07:53:00,42.0,-99.9,30.07,North,-999,-999.0,-999.0,-999,-99.99,,,-99.99,,2013-02-20 12:53:00,
2013-02-20 08:02:00,43.0,-99.9,30.08,North,-999,-999.0,-999.0,-999,-99.99,,,-99.99,,2013-02-20 13:02:00,
2013-02-20 08:12:00,-999.0,-99.9,30.08,NW,323,7.0,12.0,-999,-99.99,,,-99.99,,2013-02-20 13:12:00,
2013-02-20 08:22:00,-999.0,-99.9,30.08,NW,320,7.0,12.0,-999,-99.99,,,-99.99,,2013-02-20 13:22:00,
2013-02-20 08:32:00,-999.0,-99.9,30.09,NW,324,7.0,14.0,-999,-99.99,,,-99.99,,2013-02-20 13:32:00,
2013-02-20 08:42:00,-999.0,-99.9,30.09,NW,323,8.0,12.0,-999,-99.99,,,-99.99,,2013-02-20 13:42:00,
2013-02-20 08:52:00,-999.0,-99.9,30.10,NW,322,7.0,14.0,-999,-99.99,,,-99.99,,2013-02-20 13:52:00,
2013-02-20 09:01:00,44.0,-99.9,30.09,North,-999,-999.0,-999.0,-999,-99.99,,,-99.99,,2013-02-20 14:01:00,
2013-02-20 09:22:00,44.0,-99.9,30.09,North,-999,-999.0,-999.0,-999,-99.99,,,-99.99,,2013-02-20 14:22:00,
2013-02-20 09:32:00,-999.0,-99.9,30.10,NNW,334,9.0,15.0,-999,-99.99,,,-99.99,,2013-02-20 14:32:00,
2013-02-20 09:42:00,44.0,-99.9,30.09,NW,321,9.0,14.0,-999,-99.99,,,-99.99,,2013-02-20 14:42:00,
2013-02-20 09:52:00,44.0,-99.9,30.09,North,-999,-999.0,-999.0,-999,-99.99,,,-99.99,,2013-02-20 14:52:00,
2013-02-20 10:02:00,-999.0,-99.9,30.09,NW,326,10.0,14.0,-999,-99.99,,,-99.99,,2013-02-20 15:02:00,
2013-02-20 10:12:00,44.0,-99.9,30.08,North,-999,-999.0,-999.0,-999,-99.99,,,-99.99,,2013-02-20 15:12:00,
2013-02-20 10:22:00,45.0,-99.9,30.08,North,-999,-999.0,-999.0,-999,-99.99,,,-99.99,,2013-02-20 15:22:00,
2013-02-20 10:32:00,46.0,-99.9,30.08,North,-999,-999.0,-999.0,-999,-99.99,,,-99.99,,2013-02-20 15:32:00,
2013-02-20 10:52:00,-999.0,-99.9,30.08,NW,321,11.0,17.0,-999,-99.99,,,-99.99,,2013-02-20 15:52:00,
2013-02-20 11:01:00,48.0,-99.9,30.08,North,-999,-999.0,-999.0,-999,-99.99,,,-99.99,,2013-02-20 16:01:00,
2013-02-20 11:12:00,48.0,-99.9,30.08,North,-999,-999.0,-999.0,-999,-99.99,,,-99.99,,2013-02-20 16:12:00,
2013-02-20 11:22:00,48.0,-99.9,30.09,North,-999,-999.0,-999.0,-999,-99.99,,,-99.99,,2013-02-20 16:22:00,
2013-02-20 11:32:00,-999.0,-99.9,30.09,WNW,295,10.0,14.0,-999,-99.99,,,-99.99,,2013-02-20 16:32:00,
2013-02-20 11:52:00,49.0,-99.9,30.07,North,-999,-999.0,-999.0,-999,-99.99,,,-99.99,,2013-02-20 16:52:00,
2013-02-20 12:01:00,-999.0,-99.9,30.07,NW,308,7.0,14.0,-999,-99.99,,,-99.99,,2013-02-20 17:01:00,
2013-02-20 12:22:00,51.0,-99.9,30.07,North,-999,-999.0,-999.0,-999,-99.99,,,-99.99,,2013-02-20 17:22:00,
2013-02-20 12:32:00,-999.0,-99.9,30.07,WNW,285,7.0,10.0,-999,-99.99,,,-99.99,,2013-02-20 17:32:00,
2013-02-20 12:42:00,51.0,-99.9,30.06,West,281,5.0,11.0,-999,-99.99,,,-99.99,,2013-02-20 17:42:00,
2013-02-20 12:52:00,51.0,-99.9,30.06,North,-999,-999.0,-999.0,-999,-99.99,,,-99.99,,2013-02-20 17:52:00,
2013-02-20 13:02:00,51.0,-99.9,30.05,North,-999,-999.0,-999.0,-999,-99.99,,,-99.99,,2013-02-20 18:02:00,
2013-02-20 13:11:00,51.0,-99.9,30.05,North,-999,-999.0,-999.0,-999,-99.99,,,-99.99,,2013-02-20 18:11:00,
2013-02-20 13:22:00,52.0,-99.9,30.04,North,-999,-999.0,-999.0,-999,-99.99,,,-99.99,,2013-02-20 18:22:00,
2013-02-20 13:32:00,-999.0,-99.9,30.03,WNW,302,9.0,11.0,-999,-99.99,,,-99.99,,2013-02-20 18:32:00,
2013-02-20 13:42:00,-999.0,-99.9,30.03,WNW,295,7.0,11.0,-999,-99.99,,,-99.99,,2013-02-20 18:42:00,
2013-02-20 13:52:00,-999.0,-99.9,30.03,WNW,291,6.0,12.0,-999,-99.99,,,-99.99,,2013-02-20 18:52:00,
2013-02-20 14:02:00,-999.0,-99.9,30.03,WNW,291,6.0,12.0,-999,-99.99,,,-99.99,,2013-02-20 19:02:00,
2013-02-20 14:21:00,-999.0,-99.9,30.02,WSW,243,2.0,10.0,-999,-99.99,,,-99.99,,2013-02-20 19:21:00,
2013-02-20 14:32:00,-999.0,-99.9,30.02,WSW,250,6.0,12.0,-999,-99.99,,,-99.99,,2013-02-20 19:32:00,
2013-02-20 14:42:00,53.0,-99.9,30.01,North,-999,-999.0,-999.0,-999,-99.99,,,-99.99,,2013-02-20 19:42:00,
2013-02-20 14:52:00,-999.0,-99.9,30.01,SW,232,5.0,13.0,-999,-99.99,,,-99.99,,2013-02-20 19:52:00,
2013-02-20 15:01:00,53.0,-99.9,30.01,North,-999,-999.0,-999.0,-999,-99.99,,,-99.99,,2013-02-20 20:01:00,
2013-02-20 15:11:00,-999.0,-99.9,30.00,SW,232,6.0,13.0,-999,-99.99,,,-99.99,,2013-02-20 20:11:00,
2013-02-20 15:21:00,54.0,-99.9,30.00,North,-999,-999.0,-999.0,-999,-99.99,,,-99.99,,2013-02-20 20:21:00,
2013-02-20 15:31:00,-999.0,-99.9,30.00,WSW,248,8.0,13.0,-999,-99.99,,,-99.99,,2013-02-20 20:31:00,
2013-02-20 15:41:00,-999.0,-99.9,30.00,SW,228,6.0,14.0,-999,-99.99,,,-99.99,,2013-02-20 20:41:00,
2013-02-20 15:52:00,-999.0,-99.9,30.00,WSW,248,8.0,15.0,-999,-99.99,,,-99.99,,2013-02-20 20:52:00,
2013-02-20 16:01:00,-999.0,-99.9,30.01,West,272,5.0,10.0,-999,-99.99,,,-99.99,,2013-02-20 21:01:00,
2013-02-20 16:11:00,55.0,-99.9,30.01,North,-999,-999.0,-999.0,-999,-99.99,,,-99.99,,2013-02-20 21:11:00,
2013-02-20 16:21:00,-999.0,-99.9,30.01,NW,313,5.0,11.0,-999,-99.99,,,-99.99,,2013-02-20 21:21:00,
2013-02-20 16:32:00,-999.0,-99.9,30.01,NW,313,5.0,11.0,-999,-99.99,,,-99.99,,2013-02-20 21:32:00,
2013-02-20 16:42:00,-999.0,-99.9,30.01,NW,304,8.0,12.0,-999,-99.99,,,-99.99,,2013-02-20 21:42:00,
2013-02-20 16:52:00,-999.0,-99.9,30.01,NW,304,8.0,12.0,-999,-99.99,,,-99.99,,2013-02-20 21:52:00,
2013-02-20 17:02:00,-999.0,-99.9,30.01,NW,310,7.0,12.0,-999,-99.99,,,-99.99,,2013-02-20 22:02:00,
2013-02-20 17:11:00,-999.0,-99.9,30.01,WNW,297,6.0,8.0,-999,-99.99,,,-99.99,,2013-02-20 22:11:00,
2013-02-20 17:21:00,53.0,-99.9,30.01,North,-999,-999.0,-999.0,-999,-99.99,,,-99.99,,2013-02-20 22:21:00,
2013-02-20 17:32:00,-999.0,-99.9,30.01,WNW,284,4.0,8.0,-999,-99.99,,,-99.99,,2013-02-20 22:32:00,
2013-02-20 17:43:00,52.0,-99.9,30.02,North,-999,-999.0,-999.0,-999,-99.99,,,-99.99,,2013-02-20 22:43:00,
2013-02-20 17:52:00,-999.0,-99.9,30.03,NW,320,5.0,12.0,-999,-99.99,,,-99.99,,2013-02-20 22:52:00,
2013-02-20 18:01:00,-999.0,-99.9,30.03,NW,306,7.0,10.0,-999,-99.99,,,-99.99,,2013-02-20 23:01:00,
2013-02-20 18:12:00,-999.0,-99.9,30.03,NW,316,4.0,9.0,-999,-99.99,,,-99.99,,2013-02-20 23:12:00,
2013-02-20 18:22:00,-999.0,-99.9,30.05,NW,314,5.0,6.0,-999,-99.99,,,-99.99,,2013-02-20 23:22:00,
2013-02-20 18:32:00,-999.0,-99.9,30.05,West,278,3.0,7.0,-999,-99.99,,,-99.99,,2013-02-20 23:32:00,
2013-02-20 18:53:00,-999.0,-99.9,30.07,WSW,255,3.0,5.0,-999,-99.99,,,-99.99,,2013-02-20 23:53:00,
2013-02-20 19:03:00,49.0,-99.9,30.07,North,-999,-999.0,-999.0,-999,-99.99,,,-99.99,,2013-02-21 00:03:00,
2013-02-20 19:11:00,-999.0,-99.9,30.07,WSW,250,5.0,8.0,-999,-99.99,,,-99.99,,2013-02-21 00:11:00,
2013-02-20 19:22:00,49.0,-99.9,30.07,North,-999,-999.0,-999.0,-999,-99.99,,,-99.99,,2013-02-21 00:22:00,
2013-02-20 19:32:00,-999.0,-99.9,30.07,West,263,3.0,7.0,-999,-99.99,,,-99.99,,2013-02-21 00:32:00,
2013-02-20 19:42:00,-999.0,-99.9,30.08,West,262,4.0,6.0,-999,-99.99,,,-99.99,,2013-02-21 00:42:00,
2013-02-20 19:52:00,49.0,-99.9,30.08,North,-999,-999.0,-999.0,-999,-99.99,,,-99.99,,2013-02-21 00:52:00,
2013-02-20 20:01:00,-999.0,-99.9,30.08,WSW,258,4.0,7.0,-999,-99.99,,,-99.99,,2013-02-21 01:01:00,
2013-02-20 20:22:00,-999.0,-99.9,30.09,West,263,3.0,8.0,-999,-99.99,,,-99.99,,2013-02-21 01:22:00,
2013-02-20 20:32:00,49.0,-99.9,30.09,North,-999,-999.0,-999.0,-999,-99.99,,,-99.99,,2013-02-21 01:32:00,
2013-02-20 20:42:00,49.0,-99.9,30.09,North,-999,-999.0,-999.0,-999,-99.99,,,-99.99,,2013-02-21 01:42:00,
2013-02-20 20:52:00,49.0,-99.9,30.09,North,-999,-999.0,-999.0,-999,-99.99,,,-99.99,,2013-02-21 01:52:00,
2013-02-20 21:02:00,-999.0,-99.9,30.09,West,269,3.0,5.0,-999,-99.99,,,-99.99,,2013-02-21 02:02:00,
2013-02-20 21:11:00,-999.0,-99.9,30.10,West,261,4.0,7.0,-999,-99.99,,,-99.99,,2013-02-21 02:11:00,
2013-02-20 21:22:00,48.0,-99.9,30.10,North,-999,-999.0,-999.0,-999,-99.99,,,-99.99,,2013-02-21 02:22:00,
2013-02-20 21:32:00,47.0,-99.9,30.10,North,-999,-999.0,-999.0,-999,-99.99,,,-99.99,,2013-02-21 02:32:00,
2013-02-20 21:42:00,47.0,-99.9,30.10,North,-999,-999.0,-999.0,-999,-99.99,,,-99.99,,2013-02-21 02:42:00,
2013-02-20 21:52:00,47.0,-99.9,30.10,North,-999,-999.0,-999.0,-999,-99.99,,,-99.99,,2013-02-21 02:52:00,
2013-02-20 22:02:00,48.0,-99.9,30.11,North,-999,-999.0,-999.0,-999,-99.99,,,-99.99,,2013-02-21 03:02:00,
2013-02-20 22:22:00,48.0,-99.9,30.11,North,-999,-999.0,-999.0,-999,-99.99,,,-99.99,,2013-02-21 03:22:00,
2013-02-20 22:32:00,-999.0,-99.9,30.12,West,280,2.0,4.0,-999,-99.99,,,-99.99,,2013-02-21 03:32:00,
2013-02-20 22:52:00,46.0,-99.9,30.12,North,-999,-999.0,-999.0,-999,-99.99,,,-99.99,,2013-02-21 03:52:00,
2013-02-20 23:01:00,-999.0,-99.9,30.12,WNW,291,2.0,3.0,-999,-99.99,,,-99.99,,2013-02-21 04:01:00,
2013-02-20 23:11:00,-999.0,-99.9,30.12,WNW,296,2.0,3.0,-999,-99.99,,,-99.99,,2013-02-21 04:11:00,
2013-02-20 23:22:00,46.0,-99.9,30.11,North,-999,-999.0,-999.0,-999,-99.99,,,-99.99,,2013-02-21 04:22:00,
2013-02-20 23:32:00,-999.0,-99.9,30.11,North,2,3.0,3.0,-999,-99.99,,,-99.99,,2013-02-21 04:32:00,
2013-02-20 23:36:00,-999.0,-99.9,30.10,North,358,0.0,2.0,-999,-99.99,,,-99.99,,2013-02-21 04:36:00,
2013-02-20 23:42:00,-999.0,-99.9,30.11,NNE,17,1.0,3.0,-999,-99.99,,,-99.99,,2013-02-21 04:42:00,
2013-02-20 23:52:00,44.0,-99.9,30.11,North,-999,-999.0,-999.0,-999,-99.99,,,-99.99,,2013-02-21 04:52:00,